createdAt,value
2017-03-30T00:00:52.714Z,43.34
2017-03-30T00:03:16.397Z,43.15
2017-03-30T00:05:40.068Z,43.53
2017-03-30T00:08:03.829Z,43.34
2017-03-30T00:10:27.469Z,43.24
2017-03-30T00:12:51.076Z,42.77
2017-03-30T00:15:14.786Z,44.18
2017-03-30T00:17:38.426Z,44.09
2017-03-30T00:20:02.095Z,44.47
2017-03-30T00:22:25.774Z,45.62
2017-03-30T00:24:49.447Z,45.72
2017-03-30T00:27:00.466Z,45.33
2017-03-30T00:28:53.739Z,46
2017-03-30T00:31:17.456Z,45.79
2017-03-30T00:33:32.730Z,46.08
2017-03-30T00:35:42.980Z,46.94
2017-03-30T00:38:01.730Z,47.42
2017-03-30T00:40:25.417Z,47.61
2017-03-30T00:42:49.089Z,46.46
2017-03-30T00:44:50.329Z,46.26
2017-03-30T00:47:14.494Z,46.65
2017-03-30T00:49:37.797Z,46.55
2017-03-30T00:52:01.463Z,46.65
2017-03-30T00:54:27.172Z,46.65
2017-03-30T00:56:42.447Z,46.48
2017-03-30T00:59:06.329Z,45.79
2017-03-30T01:01:16.992Z,46.46
2017-03-30T01:03:41.823Z,46.46
2017-03-30T01:06:05.528Z,46.65
2017-03-30T01:08:29.106Z,46.75
2017-03-30T01:10:53.779Z,46.65
2017-03-30T01:13:17.564Z,46.65
2017-03-30T01:15:41.235Z,46.94
2017-03-30T01:18:04.886Z,47.8
2017-03-30T01:20:28.641Z,47.42
2017-03-30T01:22:52.262Z,47.61
2017-03-30T01:25:15.764Z,47.22
2017-03-30T01:27:40.362Z,47.22
2017-03-30T01:30:04.884Z,47.42
2017-03-30T01:32:28.686Z,47.89
2017-03-30T01:34:52.389Z,47.8
2017-03-30T01:37:16.095Z,47.8
2017-03-30T01:39:39.684Z,47.42
2017-03-30T01:42:03.369Z,47.8
2017-03-30T01:44:28.022Z,47.8
2017-03-30T01:46:52.737Z,47.8
2017-03-30T01:49:16.374Z,47.61
2017-03-30T01:51:09.682Z,47.8
2017-03-30T01:53:33.408Z,48.18
2017-03-30T01:55:58.106Z,48.18
2017-03-30T01:58:23.733Z,48.57
2017-03-30T02:00:47.401Z,48.75
2017-03-30T02:03:02.661Z,48.75
2017-03-30T02:05:26.341Z,48.66
2017-03-30T02:07:50.928Z,48.75
2017-03-30T02:10:13.694Z,48.75
2017-03-30T02:12:39.305Z,49.33
2017-03-30T02:15:02.981Z,49.24
2017-03-30T02:17:04.704Z,49.71
2017-03-30T02:19:21.043Z,49.52
2017-03-30T02:21:45.750Z,49.43
2017-03-30T02:24:09.308Z,49.88
2017-03-30T02:26:11.029Z,50.26
2017-03-30T02:28:26.237Z,50.26
2017-03-30T02:30:19.518Z,51.03
2017-03-30T02:32:43.173Z,50.93
2017-03-30T02:35:06.989Z,51.51
2017-03-30T02:37:31.554Z,51.1
2017-03-30T02:39:56.201Z,51.87
2017-03-30T02:42:26.552Z,51.97
2017-03-30T02:44:50.154Z,52.25
2017-03-30T02:47:13.707Z,51.87
2017-03-30T02:49:37.294Z,51.77
2017-03-30T02:52:00.841Z,52.34
2017-03-30T02:54:24.414Z,52.25
2017-03-30T02:56:48.002Z,52.15
2017-03-30T02:59:11.767Z,51.97
2017-03-30T03:01:35.350Z,52.06
2017-03-30T03:03:58.973Z,51.99
2017-03-30T03:06:22.593Z,52.06
2017-03-30T03:08:47.176Z,52.25
2017-03-30T03:11:10.824Z,51.77
2017-03-30T03:13:35.246Z,51.22
2017-03-30T03:15:58.807Z,51.79
2017-03-30T03:18:22.362Z,51.77
2017-03-30T03:20:46.418Z,51.79
2017-03-30T03:23:10.985Z,51.99
2017-03-30T03:25:34.682Z,51.22
2017-03-30T03:27:58.085Z,50.84
2017-03-30T03:30:21.880Z,50.65
2017-03-30T03:32:45.370Z,50.93
2017-03-30T03:35:11.187Z,51.42
2017-03-30T03:37:36.702Z,51.61
2017-03-30T03:40:01.274Z,51.79
2017-03-30T03:42:25.839Z,51.32
2017-03-30T03:44:49.635Z,52.09
2017-03-30T03:47:14.222Z,52.56
2017-03-30T03:49:37.770Z,52.25
2017-03-30T03:52:08.012Z,52.66
2017-03-30T03:54:23.495Z,52.44
2017-03-30T03:56:47.067Z,53.11
2017-03-30T03:59:10.535Z,53.59
2017-03-30T04:01:34.112Z,53.2
2017-03-30T04:03:58.605Z,53.88
2017-03-30T04:06:24.384Z,54.23
2017-03-30T04:08:39.415Z,54.68
2017-03-30T04:10:41.082Z,54.61
2017-03-30T04:12:51.262Z,55.16
2017-03-30T04:15:14.851Z,56.85
2017-03-30T04:17:38.417Z,56.95
2017-03-30T04:20:03.942Z,56.79
2017-03-30T04:22:29.439Z,56.31
2017-03-30T04:24:53.028Z,55.64
2017-03-30T04:27:17.626Z,55.83
2017-03-30T04:29:42.123Z,56.02
2017-03-30T04:32:05.739Z,56.31
2017-03-30T04:34:31.202Z,56.4
2017-03-30T04:36:24.579Z,56.31
2017-03-30T04:38:48.121Z,55.54
2017-03-30T04:41:11.697Z,56.31
2017-03-30T04:43:35.271Z,55.93
2017-03-30T04:46:00.779Z,56.12
2017-03-30T04:49:52.107Z,55.74
2017-03-30T04:52:15.701Z,55.1
2017-03-30T04:54:40.192Z,55.38
2017-03-30T04:57:03.740Z,55.38
2017-03-30T04:59:27.490Z,55
2017-03-30T05:01:51.829Z,55.93
2017-03-30T05:04:15.269Z,56.43
2017-03-30T05:06:45.521Z,56.4
2017-03-30T05:09:09.076Z,56.98
2017-03-30T05:11:39.494Z,56.88
2017-03-30T05:14:03.064Z,56.79
2017-03-30T05:17:54.022Z,56.31
2017-03-30T05:20:18.588Z,55.74
2017-03-30T05:22:42.149Z,55.38
2017-03-30T05:25:05.734Z,55
2017-03-30T05:27:29.298Z,54.45
2017-03-30T05:29:53.909Z,53.69
2017-03-30T05:32:17.467Z,53.11
2017-03-30T05:34:41.032Z,52.47
2017-03-30T05:37:04.548Z,52.09
2017-03-30T05:39:28.114Z,51.03
2017-03-30T05:41:51.843Z,50.58
2017-03-30T05:44:15.432Z,48.13
2017-03-30T05:46:38.999Z,45.21
2017-03-30T05:49:03.727Z,42.27
2017-03-30T05:51:27.260Z,38.49
2017-03-30T05:53:50.962Z,34.32
2017-03-30T05:56:14.754Z,31.75
2017-03-30T05:58:38.604Z,30.51
2017-03-30T06:01:03.581Z,27.96
2017-03-30T06:03:27.724Z,25.09
2017-03-30T06:05:53.910Z,23.48
2017-03-30T06:08:19.090Z,21.85
2017-03-30T06:10:43.288Z,19.95
2017-03-30T06:13:08.721Z,19.74
2017-03-30T06:17:10.269Z,20.89
2017-03-30T06:19:36.723Z,20.99
2017-03-30T06:22:01.271Z,19.27
2017-03-30T06:24:25.474Z,19.44
2017-03-30T06:26:49.769Z,17.65
2017-03-30T06:29:14.159Z,15.15
2017-03-30T06:31:38.512Z,16.3
2017-03-30T06:34:02.844Z,19.55
2017-03-30T06:36:27.248Z,21.09
2017-03-30T06:38:51.605Z,22.4
2017-03-30T06:41:15.998Z,23.64
2017-03-30T06:43:40.473Z,25.07
2017-03-30T06:46:04.740Z,26.57
2017-03-30T06:48:30.113Z,26.2
2017-03-30T06:50:55.378Z,26.31
2017-03-30T06:53:20.780Z,26.21
2017-03-30T06:55:45.142Z,23.85
2017-03-30T06:58:10.404Z,19.46
2017-03-30T07:00:35.874Z,14.39
2017-03-30T07:03:01.476Z,9.55
2017-03-30T07:05:26.174Z,8.68
2017-03-30T07:07:51.097Z,6.43
2017-03-30T07:10:16.233Z,7.21
2017-03-30T07:12:41.093Z,6.63
2017-03-30T07:15:06.429Z,4.67
2017-03-30T07:17:31.936Z,4.76
2017-03-30T07:19:57.655Z,4.36
2017-03-30T07:22:23.539Z,3.48
2017-03-30T07:24:49.328Z,4.07
2017-03-30T07:27:15.521Z,4.07
2017-03-30T07:29:32.903Z,2.29
2017-03-30T07:31:59.941Z,2
2017-03-30T07:34:26.141Z,2.09
2017-03-30T07:36:52.519Z,1.79
2017-03-30T07:39:18.969Z,0.4
2017-03-30T07:41:45.571Z,0
2017-03-30T07:44:12.173Z,1
2017-03-30T07:46:38.956Z,0.9
2017-03-30T07:49:06.122Z,0
2017-03-30T07:51:33.046Z,0.6
2017-03-30T07:54:00.337Z,0
2017-03-30T07:56:27.112Z,0
2017-03-30T07:58:54.034Z,2.59
2017-03-30T08:01:20.973Z,5.05
2017-03-30T08:03:50.751Z,5.63
2017-03-30T08:06:17.771Z,8.64
2017-03-30T08:08:44.391Z,11.07
2017-03-30T08:11:10.974Z,10.88
2017-03-30T08:13:37.268Z,12.72
2017-03-30T08:16:03.447Z,12.23
2017-03-30T08:18:29.309Z,11.55
2017-03-30T08:20:56.045Z,12.91
2017-03-30T08:23:21.556Z,14.83
2017-03-30T08:25:47.038Z,16.26
2017-03-30T08:28:13.278Z,17.01
2017-03-30T08:30:39.512Z,16.36
2017-03-30T08:33:05.656Z,16.53
2017-03-30T08:35:31.586Z,17.3
2017-03-30T08:37:57.536Z,18.93
2017-03-30T08:40:24.386Z,21.59
2017-03-30T08:42:55.717Z,19.42
2017-03-30T08:45:29.347Z,19.42
2017-03-30T08:47:55.177Z,19.7
2017-03-30T08:50:20.898Z,19.5
2017-03-30T08:52:52.149Z,19.4
2017-03-30T08:55:18.849Z,20.73
2017-03-30T08:57:44.543Z,20.83
2017-03-30T09:00:16.159Z,18.83
2017-03-30T09:02:40.854Z,19.6
2017-03-30T09:05:06.517Z,19.87
2017-03-30T09:07:31.158Z,18.26
2017-03-30T09:09:55.843Z,19.11
2017-03-30T09:12:21.473Z,20.54
2017-03-30T09:14:47.117Z,21.88
2017-03-30T09:17:12.710Z,20.84
2017-03-30T09:19:37.483Z,20.84
2017-03-30T09:22:01.955Z,20.26
2017-03-30T09:24:28.516Z,18.07
2017-03-30T09:26:53.238Z,19.32
2017-03-30T09:29:18.909Z,20.29
2017-03-30T09:31:43.451Z,21.02
2017-03-30T09:34:16.692Z,20.18
2017-03-30T09:36:41.263Z,19.5
2017-03-30T09:39:05.843Z,18.17
2017-03-30T09:41:30.375Z,18.55
2017-03-30T09:43:56.923Z,18.94
2017-03-30T09:46:22.561Z,17.01
2017-03-30T09:48:47.184Z,18.74
2017-03-30T09:51:12.907Z,20.26
2017-03-30T09:53:23.379Z,20.16
2017-03-30T09:55:49.102Z,20.25
2017-03-30T09:58:15.725Z,18.73
2017-03-30T10:00:40.297Z,19.98
2017-03-30T10:03:04.909Z,19.11
2017-03-30T10:05:29.457Z,21.02
2017-03-30T10:07:54.060Z,20.25
2017-03-30T10:10:20.687Z,21.5
2017-03-30T10:12:45.153Z,20.16
2017-03-30T10:15:09.623Z,21.11
2017-03-30T10:17:34.210Z,21.88
2017-03-30T10:19:59.726Z,22.45
2017-03-30T10:22:25.174Z,22.16
2017-03-30T10:24:41.184Z,22.26
2017-03-30T10:27:05.716Z,20.36
2017-03-30T10:29:31.187Z,20.17
2017-03-30T10:31:55.565Z,20.83
2017-03-30T10:34:20.036Z,20.07
2017-03-30T10:36:44.523Z,21.88
2017-03-30T10:39:09.035Z,22.84
2017-03-30T10:41:33.563Z,22.16
2017-03-30T10:43:58.122Z,21.98
2017-03-30T10:46:22.682Z,22.65
2017-03-30T10:48:24.097Z,23.5
2017-03-30T10:50:48.588Z,23.6
2017-03-30T10:54:58.145Z,21.89
2017-03-30T10:57:23.688Z,22.45
2017-03-30T10:59:48.218Z,21.7
2017-03-30T11:02:12.663Z,22.19
2017-03-30T11:04:37.644Z,22.55
2017-03-30T11:07:02.579Z,21.78
2017-03-30T11:09:27.882Z,23.33
2017-03-30T11:11:53.363Z,23.13
2017-03-30T11:14:17.638Z,23.6
2017-03-30T11:16:42.027Z,22.74
2017-03-30T11:19:06.390Z,24.08
2017-03-30T11:21:30.751Z,23.98
2017-03-30T11:23:55.149Z,23.5
2017-03-30T11:26:19.510Z,22.45
2017-03-30T11:28:43.900Z,22.54
2017-03-30T11:31:08.300Z,21.98
2017-03-30T11:33:32.646Z,22.74
2017-03-30T11:35:58.071Z,23.87
2017-03-30T11:38:22.633Z,23
2017-03-30T11:40:47.913Z,23.49
2017-03-30T11:43:12.433Z,22.65
2017-03-30T11:45:36.852Z,21.8
2017-03-30T11:48:01.296Z,22.94
2017-03-30T11:50:25.739Z,21.99
2017-03-30T11:52:50.031Z,21.51
2017-03-30T11:55:14.394Z,21.61
2017-03-30T11:57:38.786Z,21.51
2017-03-30T12:00:03.153Z,21.61
2017-03-30T12:02:27.506Z,20.17
2017-03-30T12:04:51.886Z,21.22
2017-03-30T12:07:16.250Z,23.01
2017-03-30T12:09:40.585Z,23.21
2017-03-30T12:12:04.941Z,22.94
2017-03-30T12:14:29.309Z,22.55
2017-03-30T12:16:54.873Z,23.5
2017-03-30T12:19:19.403Z,24.73
2017-03-30T12:21:35.452Z,24.93
2017-03-30T12:23:59.812Z,23.12
2017-03-30T12:26:24.138Z,22.47
2017-03-30T12:28:48.433Z,21.59
2017-03-30T12:31:12.708Z,21.61
2017-03-30T12:33:37.037Z,20.93
2017-03-30T12:36:03.358Z,21.59
2017-03-30T12:38:28.595Z,22.64
2017-03-30T12:40:53.863Z,22.53
2017-03-30T12:43:18.185Z,22.82
2017-03-30T12:45:42.497Z,22.16
2017-03-30T12:48:07.801Z,21.78
2017-03-30T12:50:33.046Z,22.16
2017-03-30T12:52:43.577Z,21.5
2017-03-30T12:54:59.454Z,22.64
2017-03-30T12:57:23.778Z,21.79
2017-03-30T12:59:48.090Z,21.97
2017-03-30T13:02:12.330Z,21.4
2017-03-30T13:04:37.652Z,21.7
2017-03-30T13:07:01.970Z,21.88
2017-03-30T13:08:55.418Z,22.74
2017-03-30T13:11:19.783Z,22.47
2017-03-30T13:13:36.724Z,22.17
2017-03-30T13:16:01.075Z,21.61
2017-03-30T13:18:25.351Z,23.41
2017-03-30T13:22:25.376Z,23.03
2017-03-30T13:24:49.818Z,21.88
2017-03-30T13:27:14.874Z,23.32
2017-03-30T13:29:39.778Z,23.22
2017-03-30T13:32:04.050Z,23.41
2017-03-30T13:34:28.781Z,23.12
2017-03-30T13:36:54.187Z,23.5
2017-03-30T13:39:19.237Z,23.03
2017-03-30T13:41:43.837Z,22.74
2017-03-30T13:44:08.035Z,24.27
2017-03-30T13:46:32.533Z,22.84
2017-03-30T13:48:56.924Z,22.56
2017-03-30T13:51:22.460Z,21.51
2017-03-30T13:53:46.673Z,21.61
2017-03-30T13:56:11.010Z,21.61
2017-03-30T13:58:35.468Z,23.41
2017-03-30T14:00:59.974Z,23.88
2017-03-30T14:03:24.527Z,23.13
2017-03-30T14:05:49.127Z,23.71
2017-03-30T14:08:05.723Z,23.91
2017-03-30T14:10:32.932Z,23.23
2017-03-30T14:13:04.145Z,22.17
2017-03-30T14:15:29.025Z,21.7
2017-03-30T14:21:18.761Z,23.42
2017-03-30T14:23:46.671Z,23.8
2017-03-30T14:26:11.094Z,23.8
2017-03-30T14:28:35.469Z,24.56
2017-03-30T14:30:59.684Z,24.66
2017-03-30T14:33:23.948Z,23.8
2017-03-30T14:35:48.442Z,23.03
2017-03-30T14:38:12.960Z,22.75
2017-03-30T14:40:29.019Z,22.85
2017-03-30T14:42:53.230Z,23.13
2017-03-30T14:45:17.640Z,23.41
2017-03-30T14:47:33.475Z,23.7
2017-03-30T14:49:57.765Z,25.52
2017-03-30T14:52:22.028Z,24.95
2017-03-30T14:54:46.527Z,25.32
2017-03-30T14:57:10.580Z,24.85
2017-03-30T14:59:34.978Z,24.76
2017-03-30T15:01:59.239Z,24.57
2017-03-30T15:04:23.545Z,24.28
2017-03-30T15:06:47.813Z,25.04
2017-03-30T15:09:12.051Z,24.09
2017-03-30T15:11:36.462Z,25.24
2017-03-30T15:14:01.816Z,25.99
2017-03-30T15:16:26.012Z,25.81
2017-03-30T15:18:50.284Z,25.34
2017-03-30T15:21:06.053Z,25.34
2017-03-30T15:23:30.326Z,25.14
2017-03-30T15:25:56.451Z,25.34
2017-03-30T15:28:20.711Z,25.34
2017-03-30T15:30:44.978Z,24.38
2017-03-30T15:33:09.287Z,24.86
2017-03-30T15:35:33.563Z,25.04
2017-03-30T15:37:58.030Z,24.86
2017-03-30T15:40:22.349Z,24.19
2017-03-30T15:42:46.745Z,24.68
2017-03-30T15:45:11.103Z,24.86
2017-03-30T15:47:35.391Z,25.42
2017-03-30T15:49:59.686Z,25.24
2017-03-30T15:52:23.941Z,25.71
2017-03-30T15:56:24.524Z,25.61
2017-03-30T15:58:40.375Z,25.32
2017-03-30T16:01:04.681Z,25.61
2017-03-30T16:03:28.986Z,25.14
2017-03-30T16:05:53.384Z,24.95
2017-03-30T16:08:17.644Z,25.42
2017-03-30T16:10:27.887Z,25.42
2017-03-30T16:12:52.244Z,25.51
2017-03-30T16:15:16.547Z,25.62
2017-03-30T16:17:40.832Z,25.43
2017-03-30T16:20:05.117Z,26.01
2017-03-30T16:22:29.428Z,25.52
2017-03-30T16:24:53.594Z,26.46
2017-03-30T16:27:17.877Z,26.56
2017-03-30T16:29:28.295Z,26.57
2017-03-30T16:31:44.173Z,25.9
2017-03-30T16:34:08.491Z,25.9
2017-03-30T16:36:32.735Z,26.09
2017-03-30T16:38:57.024Z,25.9
2017-03-30T16:41:21.267Z,25.42
2017-03-30T16:43:45.575Z,26.18
2017-03-30T16:46:09.753Z,25.89
2017-03-30T16:48:34.052Z,26.56
2017-03-30T16:50:58.339Z,27.04
2017-03-30T16:53:22.505Z,27.51
2017-03-30T16:55:46.800Z,27.61
2017-03-30T16:58:10.944Z,27.51
2017-03-30T17:00:35.096Z,27.61
2017-03-30T17:02:59.307Z,27.81
2017-03-30T17:05:23.569Z,28.28
2017-03-30T17:07:47.760Z,28.28
2017-03-30T17:10:11.909Z,27.91
2017-03-30T17:12:36.072Z,28.08
2017-03-30T17:15:00.258Z,27.91
2017-03-30T17:17:24.461Z,28.09
2017-03-30T17:19:50.669Z,28.28
2017-03-30T17:22:06.457Z,28.08
2017-03-30T17:24:31.676Z,28.28
2017-03-30T17:27:02.731Z,29.13
2017-03-30T17:29:33.651Z,28.94
2017-03-30T17:31:49.436Z,29.05
2017-03-30T17:34:14.653Z,29.42
2017-03-30T17:38:06.057Z,29.52
2017-03-30T17:40:36.921Z,29.9
2017-03-30T17:43:03.152Z,30.94
2017-03-30T17:45:20.846Z,31.04
2017-03-30T17:48:00.949Z,31.52
2017-03-30T17:50:25.031Z,31.43
2017-03-30T17:52:52.579Z,31.99
2017-03-30T17:55:16.670Z,31.52
2017-03-30T17:57:40.755Z,32.47
2017-03-30T18:00:04.826Z,32.57
2017-03-30T18:02:29.939Z,32.76
2017-03-30T18:05:13.983Z,33.05
2017-03-30T18:07:30.781Z,32.76
2017-03-30T18:09:54.875Z,33.05
2017-03-30T18:12:18.970Z,32.95
2017-03-30T18:14:43.043Z,32.86
2017-03-30T18:17:05.554Z,33.42
2017-03-30T18:19:29.677Z,33.15
2017-03-30T18:21:37.839Z,33.81
2017-03-30T18:24:01.982Z,33.81
2017-03-30T18:26:11.804Z,33.71
2017-03-30T18:28:13.091Z,34.19
2017-03-30T18:30:37.142Z,34
2017-03-30T18:33:01.122Z,34.48
2017-03-30T18:35:25.114Z,34.48
2017-03-30T18:37:40.677Z,34.29
2017-03-30T18:40:04.662Z,34.66
2017-03-30T18:42:28.647Z,34.19
2017-03-30T18:44:44.232Z,34.19
2017-03-30T18:47:09.228Z,34.58
2017-03-30T18:49:24.883Z,34.38
2017-03-30T18:51:35.292Z,34.86
2017-03-30T18:53:50.860Z,35.24
2017-03-30T18:57:53.286Z,35.71
2017-03-30T19:00:17.325Z,35.91
2017-03-30T19:02:41.299Z,35.91
2017-03-30T19:05:07.321Z,36.56
2017-03-30T19:07:31.317Z,36.47
2017-03-30T19:09:55.296Z,37.24
2017-03-30T19:12:05.103Z,37.14
2017-03-30T19:14:15.481Z,36.95
2017-03-30T19:16:41.533Z,37.04
2017-03-30T19:19:05.532Z,37.24
2017-03-30T19:21:31.544Z,36.95
2017-03-30T19:23:56.558Z,37.34
2017-03-30T19:26:28.393Z,37.04
2017-03-30T19:28:52.431Z,37.62
2017-03-30T19:31:16.379Z,37.72
2017-03-30T19:33:40.293Z,37.99
2017-03-30T19:36:04.231Z,38.37
2017-03-30T19:40:04.526Z,38.85
2017-03-30T19:42:28.532Z,38.76
2017-03-30T19:44:54.469Z,39.14
2017-03-30T19:47:18.456Z,39.24
2017-03-30T19:49:43.454Z,39.53
2017-03-30T19:52:07.414Z,40.01
2017-03-30T19:54:32.427Z,39.7
2017-03-30T19:56:56.339Z,40.11
2017-03-30T19:59:20.217Z,39.04
2017-03-30T20:01:44.193Z,38.76
2017-03-30T20:04:08.166Z,39.04
2017-03-30T20:06:32.074Z,39.53
2017-03-30T20:08:55.988Z,39.43
2017-03-30T20:11:19.992Z,39.62
2017-03-30T20:13:43.969Z,39.72
2017-03-30T20:16:07.830Z,39.43
2017-03-30T20:18:33.683Z,39.72
2017-03-30T20:20:59.945Z,39.43
2017-03-30T20:23:01.238Z,40.01
2017-03-30T20:25:25.130Z,39.89
2017-03-30T20:27:51.032Z,39.81
2017-03-30T20:30:15.031Z,40.01
2017-03-30T20:34:17.555Z,40.3
2017-03-30T20:38:18.579Z,40.2
2017-03-30T20:42:18.688Z,40.39
2017-03-30T20:44:43.653Z,40.11
2017-03-30T20:47:22.033Z,40.47
2017-03-30T20:51:22.184Z,40.08
2017-03-30T20:55:23.029Z,40.66
2017-03-30T20:59:23.093Z,40.56
2017-03-30T21:03:23.160Z,41.24
2017-03-30T21:05:48.067Z,41.6
2017-03-30T21:08:19.531Z,41.7
2017-03-30T21:10:44.440Z,41.41
2017-03-30T21:13:09.350Z,41.79
2017-03-30T21:15:48.057Z,41.79
2017-03-30T21:19:49.780Z,42.27
2017-03-30T21:22:28.491Z,42.54
2017-03-30T21:26:28.541Z,43.12
2017-03-30T21:29:08.445Z,42.66
2017-03-30T21:33:08.466Z,43.12
2017-03-30T21:35:41.387Z,42.27
2017-03-30T21:37:58.871Z,42.56
2017-03-30T21:40:23.710Z,42.37
2017-03-30T21:44:23.808Z,43.31
2017-03-30T21:48:23.663Z,44.15
2017-03-30T21:50:55.158Z,44.17
2017-03-30T21:53:21.039Z,44.27
2017-03-30T21:57:28.421Z,44.08
2017-03-30T22:00:00.967Z,44.82
2017-03-30T22:02:16.577Z,45.3
2017-03-30T22:04:41.252Z,45.59
2017-03-30T22:08:50.330Z,45.68
2017-03-30T22:13:08.134Z,46.07
2017-03-30T22:20:11.288Z,46.55
2017-03-30T22:22:42.241Z,46.36
2017-03-30T22:25:21.143Z,46.26
2017-03-30T22:28:00.469Z,45.88
2017-03-30T22:30:25.358Z,45.68
2017-03-30T22:32:51.546Z,45.68
2017-03-30T22:35:16.284Z,45.59
2017-03-30T22:37:41.486Z,45.59
2017-03-30T22:40:06.386Z,46.07
2017-03-30T22:42:37.043Z,45.68
2017-03-30T22:45:00.939Z,45.88
2017-03-30T22:47:25.737Z,46.36
2017-03-30T22:51:25.812Z,47.39
2017-03-30T22:54:05.618Z,47.49
2017-03-30T22:56:30.660Z,47.49
2017-03-30T22:58:54.648Z,47.58
2017-03-30T23:01:22.426Z,47.58
2017-03-30T23:05:40.899Z,48.8
2017-03-30T23:08:09.400Z,48.52
2017-03-30T23:10:48.484Z,48.33
2017-03-30T23:13:28.080Z,48.8
2017-03-30T23:15:55.595Z,49.1
2017-03-30T23:18:20.462Z,49.74
2017-03-30T23:20:51.890Z,49.65
2017-03-30T23:23:15.691Z,49.45
2017-03-30T23:25:39.593Z,49.67
2017-03-30T23:28:18.536Z,48.52
2017-03-30T23:32:23.139Z,48.43
2017-03-30T23:34:51.643Z,48.43
2017-03-30T23:37:24.749Z,49.26
2017-03-30T23:41:27.973Z,48.52
2017-03-30T23:45:37.139Z,48.23
2017-03-30T23:54:53.637Z,47.1
2017-03-30T23:58:54.221Z,47.49
